sensor_id;sensor_type;location;lat;lon;timestamp;P1;durP1;ratioP1;P2;durP2;ratioP2
41687;SDS011;27371;42.686;23.362;2023-11-21T00:00:32;17.70;;;8.57;;
41687;SDS011;27371;42.686;23.362;2023-11-21T00:02:58;22.52;;;13.00;;
41687;SDS011;27371;42.686;23.362;2023-11-21T00:05:23;20.10;;;12.82;;
41687;SDS011;27371;42.686;23.362;2023-11-21T00:07:49;27.90;;;14.38;;
41687;SDS011;27371;42.686;23.362;2023-11-21T00:10:14;23.73;;;14.95;;
41687;SDS011;27371;42.686;23.362;2023-11-21T00:12:41;29.88;;;15.75;;
41687;SDS011;27371;42.686;23.362;2023-11-21T00:15:07;27.65;;;16.40;;
41687;SDS011;27371;42.686;23.362;2023-11-21T00:17:37;29.45;;;16.23;;
41687;SDS011;27371;42.686;23.362;2023-11-21T00:20:03;27.50;;;14.82;;
41687;SDS011;27371;42.686;23.362;2023-11-21T00:22:34;27.60;;;15.77;;
41687;SDS011;27371;42.686;23.362;2023-11-21T00:25:01;25.40;;;14.50;;
41687;SDS011;27371;42.686;23.362;2023-11-21T00:27:28;28.17;;;15.00;;
41687;SDS011;27371;42.686;23.362;2023-11-21T00:29:54;38.10;;;14.63;;
41687;SDS011;27371;42.686;23.362;2023-11-21T00:32:20;23.58;;;14.90;;
41687;SDS011;27371;42.686;23.362;2023-11-21T00:34:45;34.00;;;17.17;;
41687;SDS011;27371;42.686;23.362;2023-11-21T00:37:11;28.73;;;16.90;;
41687;SDS011;27371;42.686;23.362;2023-11-21T00:39:36;38.22;;;19.73;;
41687;SDS011;27371;42.686;23.362;2023-11-21T00:42:02;43.28;;;23.33;;
41687;SDS011;27371;42.686;23.362;2023-11-21T00:44:29;43.92;;;22.55;;
41687;SDS011;27371;42.686;23.362;2023-11-21T00:46:55;52.30;;;25.02;;
41687;SDS011;27371;42.686;23.362;2023-11-21T00:49:21;49.92;;;26.83;;
41687;SDS011;27371;42.686;23.362;2023-11-21T00:51:46;53.60;;;29.40;;
41687;SDS011;27371;42.686;23.362;2023-11-21T00:54:12;53.22;;;29.83;;
41687;SDS011;27371;42.686;23.362;2023-11-21T00:56:37;56.35;;;30.17;;
41687;SDS011;27371;42.686;23.362;2023-11-21T00:59:03;58.58;;;31.55;;
41687;SDS011;27371;42.686;23.362;2023-11-21T01:01:30;53.78;;;30.35;;
41687;SDS011;27371;42.686;23.362;2023-11-21T01:03:58;59.22;;;31.45;;
41687;SDS011;27371;42.686;23.362;2023-11-21T01:06:24;64.15;;;32.65;;
41687;SDS011;27371;42.686;23.362;2023-11-21T01:08:49;51.38;;;30.55;;
41687;SDS011;27371;42.686;23.362;2023-11-21T01:11:15;57.78;;;31.75;;
41687;SDS011;27371;42.686;23.362;2023-11-21T01:13:41;52.20;;;29.33;;
41687;SDS011;27371;42.686;23.362;2023-11-21T01:16:07;49.75;;;29.23;;
41687;SDS011;27371;42.686;23.362;2023-11-21T01:18:33;46.38;;;26.63;;
41687;SDS011;27371;42.686;23.362;2023-11-21T01:21:00;52.25;;;26.27;;
41687;SDS011;27371;42.686;23.362;2023-11-21T01:23:26;47.38;;;26.83;;
41687;SDS011;27371;42.686;23.362;2023-11-21T01:25:52;42.92;;;24.77;;
41687;SDS011;27371;42.686;23.362;2023-11-21T01:28:18;49.70;;;27.27;;
41687;SDS011;27371;42.686;23.362;2023-11-21T01:30:44;48.15;;;26.02;;
41687;SDS011;27371;42.686;23.362;2023-11-21T01:33:10;50.38;;;26.83;;
41687;SDS011;27371;42.686;23.362;2023-11-21T01:35:36;55.38;;;26.27;;
41687;SDS011;27371;42.686;23.362;2023-11-21T01:38:02;49.88;;;27.33;;
41687;SDS011;27371;42.686;23.362;2023-11-21T01:40:28;52.08;;;28.05;;
41687;SDS011;27371;42.686;23.362;2023-11-21T01:42:55;51.95;;;27.10;;
41687;SDS011;27371;42.686;23.362;2023-11-21T01:45:21;46.78;;;24.15;;
41687;SDS011;27371;42.686;23.362;2023-11-21T01:47:46;45.15;;;23.58;;
41687;SDS011;27371;42.686;23.362;2023-11-21T01:50:13;40.05;;;21.58;;
41687;SDS011;27371;42.686;23.362;2023-11-21T01:52:42;39.85;;;22.95;;
41687;SDS011;27371;42.686;23.362;2023-11-21T01:55:11;39.20;;;22.65;;
41687;SDS011;27371;42.686;23.362;2023-11-21T01:57:39;39.13;;;22.67;;
41687;SDS011;27371;42.686;23.362;2023-11-21T02:00:05;40.85;;;23.10;;
41687;SDS011;27371;42.686;23.362;2023-11-21T02:02:43;40.65;;;22.48;;
41687;SDS011;27371;42.686;23.362;2023-11-21T02:05:19;43.20;;;25.08;;
41687;SDS011;27371;42.686;23.362;2023-11-21T02:07:46;44.72;;;23.52;;
41687;SDS011;27371;42.686;23.362;2023-11-21T02:10:17;45.60;;;24.33;;
41687;SDS011;27371;42.686;23.362;2023-11-21T02:12:48;38.05;;;22.35;;
41687;SDS011;27371;42.686;23.362;2023-11-21T02:15:17;33.25;;;19.35;;
41687;SDS011;27371;42.686;23.362;2023-11-21T02:17:46;34.85;;;20.02;;
41687;SDS011;27371;42.686;23.362;2023-11-21T02:20:19;36.33;;;19.33;;
41687;SDS011;27371;42.686;23.362;2023-11-21T02:22:55;34.05;;;18.75;;
41687;SDS011;27371;42.686;23.362;2023-11-21T02:25:28;32.85;;;18.55;;
41687;SDS011;27371;42.686;23.362;2023-11-21T02:27:59;30.15;;;18.20;;
41687;SDS011;27371;42.686;23.362;2023-11-21T02:30:26;28.67;;;17.92;;
41687;SDS011;27371;42.686;23.362;2023-11-21T02:32:57;35.22;;;19.02;;
41687;SDS011;27371;42.686;23.362;2023-11-21T02:35:22;35.25;;;19.38;;
41687;SDS011;27371;42.686;23.362;2023-11-21T02:37:49;30.85;;;18.38;;
41687;SDS011;27371;42.686;23.362;2023-11-21T02:40:15;30.55;;;17.90;;
41687;SDS011;27371;42.686;23.362;2023-11-21T02:42:45;36.55;;;18.20;;
41687;SDS011;27371;42.686;23.362;2023-11-21T02:45:16;33.40;;;18.27;;
41687;SDS011;27371;42.686;23.362;2023-11-21T02:47:42;30.83;;;18.17;;
41687;SDS011;27371;42.686;23.362;2023-11-21T02:50:09;32.00;;;18.67;;
41687;SDS011;27371;42.686;23.362;2023-11-21T02:52:35;29.83;;;17.48;;
41687;SDS011;27371;42.686;23.362;2023-11-21T02:55:03;30.50;;;17.35;;
41687;SDS011;27371;42.686;23.362;2023-11-21T02:57:29;33.45;;;16.85;;
41687;SDS011;27371;42.686;23.362;2023-11-21T02:59:55;29.05;;;17.58;;
41687;SDS011;27371;42.686;23.362;2023-11-21T03:02:21;29.40;;;16.73;;
41687;SDS011;27371;42.686;23.362;2023-11-21T03:04:47;28.13;;;16.77;;
41687;SDS011;27371;42.686;23.362;2023-11-21T03:07:14;31.60;;;17.92;;
41687;SDS011;27371;42.686;23.362;2023-11-21T03:09:40;34.08;;;20.83;;
41687;SDS011;27371;42.686;23.362;2023-11-21T03:12:06;36.42;;;20.27;;
41687;SDS011;27371;42.686;23.362;2023-11-21T03:14:31;35.30;;;19.90;;
41687;SDS011;27371;42.686;23.362;2023-11-21T03:16:57;33.17;;;19.80;;
41687;SDS011;27371;42.686;23.362;2023-11-21T03:19:22;36.53;;;20.10;;
41687;SDS011;27371;42.686;23.362;2023-11-21T03:21:48;32.20;;;18.88;;
41687;SDS011;27371;42.686;23.362;2023-11-21T03:24:14;32.05;;;18.50;;
41687;SDS011;27371;42.686;23.362;2023-11-21T03:26:44;29.77;;;17.83;;
41687;SDS011;27371;42.686;23.362;2023-11-21T03:29:11;35.33;;;19.75;;
41687;SDS011;27371;42.686;23.362;2023-11-21T03:31:37;32.88;;;18.05;;
41687;SDS011;27371;42.686;23.362;2023-11-21T03:34:02;33.00;;;20.38;;
41687;SDS011;27371;42.686;23.362;2023-11-21T03:36:28;35.53;;;18.92;;
41687;SDS011;27371;42.686;23.362;2023-11-21T03:38:54;32.10;;;19.17;;
41687;SDS011;27371;42.686;23.362;2023-11-21T03:41:21;31.73;;;18.55;;
41687;SDS011;27371;42.686;23.362;2023-11-21T03:43:46;29.27;;;17.05;;
41687;SDS011;27371;42.686;23.362;2023-11-21T03:46:12;30.75;;;17.17;;
41687;SDS011;27371;42.686;23.362;2023-11-21T03:48:37;34.28;;;17.33;;
41687;SDS011;27371;42.686;23.362;2023-11-21T03:51:03;32.63;;;15.88;;
41687;SDS011;27371;42.686;23.362;2023-11-21T03:53:29;27.73;;;15.45;;
41687;SDS011;27371;42.686;23.362;2023-11-21T03:55:54;25.75;;;16.10;;
41687;SDS011;27371;42.686;23.362;2023-11-21T03:58:20;26.42;;;14.43;;
41687;SDS011;27371;42.686;23.362;2023-11-21T04:00:46;28.88;;;16.00;;
41687;SDS011;27371;42.686;23.362;2023-11-21T04:03:13;27.20;;;16.40;;
41687;SDS011;27371;42.686;23.362;2023-11-21T04:05:39;28.98;;;16.80;;
41687;SDS011;27371;42.686;23.362;2023-11-21T04:08:06;27.63;;;15.55;;
41687;SDS011;27371;42.686;23.362;2023-11-21T04:10:31;31.30;;;18.05;;
41687;SDS011;27371;42.686;23.362;2023-11-21T04:12:57;29.58;;;18.95;;
41687;SDS011;27371;42.686;23.362;2023-11-21T04:15:23;30.05;;;16.73;;
41687;SDS011;27371;42.686;23.362;2023-11-21T04:17:49;29.17;;;16.80;;
41687;SDS011;27371;42.686;23.362;2023-11-21T04:20:14;27.58;;;16.95;;
41687;SDS011;27371;42.686;23.362;2023-11-21T04:22:40;27.63;;;13.85;;
41687;SDS011;27371;42.686;23.362;2023-11-21T04:25:10;25.83;;;14.02;;
41687;SDS011;27371;42.686;23.362;2023-11-21T04:27:36;26.02;;;15.13;;
41687;SDS011;27371;42.686;23.362;2023-11-21T04:30:03;26.50;;;14.43;;
41687;SDS011;27371;42.686;23.362;2023-11-21T04:32:30;29.55;;;15.07;;
41687;SDS011;27371;42.686;23.362;2023-11-21T04:34:55;24.00;;;14.70;;
41687;SDS011;27371;42.686;23.362;2023-11-21T04:37:21;25.30;;;14.60;;
41687;SDS011;27371;42.686;23.362;2023-11-21T04:39:46;27.38;;;14.90;;
41687;SDS011;27371;42.686;23.362;2023-11-21T04:42:12;25.58;;;16.00;;
41687;SDS011;27371;42.686;23.362;2023-11-21T04:44:37;26.50;;;15.60;;
41687;SDS011;27371;42.686;23.362;2023-11-21T04:47:06;25.90;;;14.68;;
41687;SDS011;27371;42.686;23.362;2023-11-21T04:49:32;24.00;;;14.35;;
41687;SDS011;27371;42.686;23.362;2023-11-21T04:51:58;25.92;;;15.02;;
41687;SDS011;27371;42.686;23.362;2023-11-21T04:54:24;25.42;;;15.18;;
41687;SDS011;27371;42.686;23.362;2023-11-21T04:56:49;22.42;;;13.48;;
41687;SDS011;27371;42.686;23.362;2023-11-21T04:59:15;23.42;;;14.45;;
41687;SDS011;27371;42.686;23.362;2023-11-21T05:01:40;23.20;;;14.15;;
41687;SDS011;27371;42.686;23.362;2023-11-21T05:04:06;25.08;;;13.82;;
41687;SDS011;27371;42.686;23.362;2023-11-21T05:06:33;22.77;;;12.63;;
41687;SDS011;27371;42.686;23.362;2023-11-21T05:08:59;23.13;;;13.52;;
41687;SDS011;27371;42.686;23.362;2023-11-21T05:11:25;23.75;;;14.25;;
41687;SDS011;27371;42.686;23.362;2023-11-21T05:13:51;24.38;;;14.23;;
41687;SDS011;27371;42.686;23.362;2023-11-21T05:16:18;21.92;;;13.10;;
41687;SDS011;27371;42.686;23.362;2023-11-21T05:18:44;26.10;;;14.80;;
41687;SDS011;27371;42.686;23.362;2023-11-21T05:21:10;23.63;;;13.43;;
41687;SDS011;27371;42.686;23.362;2023-11-21T05:23:36;22.58;;;12.90;;
41687;SDS011;27371;42.686;23.362;2023-11-21T05:26:02;21.73;;;12.85;;
41687;SDS011;27371;42.686;23.362;2023-11-21T05:28:28;23.25;;;12.55;;
41687;SDS011;27371;42.686;23.362;2023-11-21T05:30:54;23.67;;;13.57;;
41687;SDS011;27371;42.686;23.362;2023-11-21T05:33:20;22.38;;;12.98;;
41687;SDS011;27371;42.686;23.362;2023-11-21T05:35:45;23.30;;;13.52;;
41687;SDS011;27371;42.686;23.362;2023-11-21T05:38:13;23.42;;;13.73;;
41687;SDS011;27371;42.686;23.362;2023-11-21T05:40:38;21.05;;;12.57;;
41687;SDS011;27371;42.686;23.362;2023-11-21T05:43:04;17.73;;;11.52;;
41687;SDS011;27371;42.686;23.362;2023-11-21T05:45:30;20.58;;;12.27;;
41687;SDS011;27371;42.686;23.362;2023-11-21T05:47:55;21.77;;;12.70;;
41687;SDS011;27371;42.686;23.362;2023-11-21T05:50:22;28.15;;;13.85;;
41687;SDS011;27371;42.686;23.362;2023-11-21T05:52:48;26.45;;;14.60;;
41687;SDS011;27371;42.686;23.362;2023-11-21T05:55:14;23.38;;;15.35;;
41687;SDS011;27371;42.686;23.362;2023-11-21T05:57:41;22.92;;;13.77;;
41687;SDS011;27371;42.686;23.362;2023-11-21T06:00:09;26.92;;;16.00;;
41687;SDS011;27371;42.686;23.362;2023-11-21T06:02:39;24.27;;;15.02;;
41687;SDS011;27371;42.686;23.362;2023-11-21T06:05:06;28.83;;;16.55;;
41687;SDS011;27371;42.686;23.362;2023-11-21T06:07:32;30.88;;;17.77;;
41687;SDS011;27371;42.686;23.362;2023-11-21T06:09:58;31.25;;;17.92;;
41687;SDS011;27371;42.686;23.362;2023-11-21T06:12:23;30.77;;;19.42;;
41687;SDS011;27371;42.686;23.362;2023-11-21T06:14:49;34.67;;;21.52;;
41687;SDS011;27371;42.686;23.362;2023-11-21T06:17:14;31.45;;;19.08;;
41687;SDS011;27371;42.686;23.362;2023-11-21T06:19:40;32.20;;;19.30;;
41687;SDS011;27371;42.686;23.362;2023-11-21T06:22:05;35.80;;;19.92;;
41687;SDS011;27371;42.686;23.362;2023-11-21T06:24:31;28.80;;;17.73;;
41687;SDS011;27371;42.686;23.362;2023-11-21T06:26:57;29.90;;;18.77;;
41687;SDS011;27371;42.686;23.362;2023-11-21T06:29:22;36.45;;;20.13;;
41687;SDS011;27371;42.686;23.362;2023-11-21T06:31:48;36.22;;;20.90;;
41687;SDS011;27371;42.686;23.362;2023-11-21T06:34:14;31.95;;;19.38;;
41687;SDS011;27371;42.686;23.362;2023-11-21T06:36:39;24.42;;;14.30;;
41687;SDS011;27371;42.686;23.362;2023-11-21T06:39:05;22.77;;;13.57;;
41687;SDS011;27371;42.686;23.362;2023-11-21T06:41:33;15.25;;;8.90;;
41687;SDS011;27371;42.686;23.362;2023-11-21T06:43:58;21.52;;;12.65;;
41687;SDS011;27371;42.686;23.362;2023-11-21T06:46:24;21.27;;;13.48;;
41687;SDS011;27371;42.686;23.362;2023-11-21T06:48:49;24.63;;;14.77;;
41687;SDS011;27371;42.686;23.362;2023-11-21T06:51:15;25.40;;;16.10;;
41687;SDS011;27371;42.686;23.362;2023-11-21T06:53:41;30.02;;;17.38;;
41687;SDS011;27371;42.686;23.362;2023-11-21T06:56:16;30.75;;;18.45;;
41687;SDS011;27371;42.686;23.362;2023-11-21T06:58:43;25.48;;;16.80;;
41687;SDS011;27371;42.686;23.362;2023-11-21T07:01:10;31.98;;;17.73;;
41687;SDS011;27371;42.686;23.362;2023-11-21T07:03:36;30.23;;;18.70;;
41687;SDS011;27371;42.686;23.362;2023-11-21T07:06:02;28.80;;;17.70;;
41687;SDS011;27371;42.686;23.362;2023-11-21T07:08:28;31.90;;;17.52;;
41687;SDS011;27371;42.686;23.362;2023-11-21T07:10:54;33.42;;;18.38;;
41687;SDS011;27371;42.686;23.362;2023-11-21T07:13:20;30.60;;;16.60;;
41687;SDS011;27371;42.686;23.362;2023-11-21T07:15:46;31.30;;;16.52;;
41687;SDS011;27371;42.686;23.362;2023-11-21T07:18:13;24.83;;;15.45;;
41687;SDS011;27371;42.686;23.362;2023-11-21T07:20:39;22.58;;;14.35;;
41687;SDS011;27371;42.686;23.362;2023-11-21T07:23:04;22.08;;;12.35;;
41687;SDS011;27371;42.686;23.362;2023-11-21T07:25:30;21.52;;;11.93;;
41687;SDS011;27371;42.686;23.362;2023-11-21T07:27:58;22.00;;;11.77;;
41687;SDS011;27371;42.686;23.362;2023-11-21T07:30:24;19.70;;;10.13;;
41687;SDS011;27371;42.686;23.362;2023-11-21T07:32:49;19.17;;;11.07;;
41687;SDS011;27371;42.686;23.362;2023-11-21T07:35:15;17.45;;;10.90;;
41687;SDS011;27371;42.686;23.362;2023-11-21T07:37:41;19.60;;;10.80;;
41687;SDS011;27371;42.686;23.362;2023-11-21T07:40:06;15.75;;;10.00;;
41687;SDS011;27371;42.686;23.362;2023-11-21T07:42:33;16.60;;;9.82;;
41687;SDS011;27371;42.686;23.362;2023-11-21T07:44:59;18.83;;;10.50;;
41687;SDS011;27371;42.686;23.362;2023-11-21T07:47:25;16.25;;;9.82;;
41687;SDS011;27371;42.686;23.362;2023-11-21T07:49:52;17.52;;;10.00;;
41687;SDS011;27371;42.686;23.362;2023-11-21T07:52:18;18.40;;;10.93;;
41687;SDS011;27371;42.686;23.362;2023-11-21T07:54:46;20.42;;;10.77;;
41687;SDS011;27371;42.686;23.362;2023-11-21T07:57:11;20.98;;;12.50;;
41687;SDS011;27371;42.686;23.362;2023-11-21T07:59:38;21.35;;;12.43;;
41687;SDS011;27371;42.686;23.362;2023-11-21T08:02:06;27.02;;;13.25;;
41687;SDS011;27371;42.686;23.362;2023-11-21T08:04:32;24.88;;;14.88;;
41687;SDS011;27371;42.686;23.362;2023-11-21T08:06:57;28.20;;;15.73;;
41687;SDS011;27371;42.686;23.362;2023-11-21T08:09:23;27.95;;;14.82;;
41687;SDS011;27371;42.686;23.362;2023-11-21T08:11:49;23.33;;;13.93;;
41687;SDS011;27371;42.686;23.362;2023-11-21T08:14:15;21.75;;;13.55;;
41687;SDS011;27371;42.686;23.362;2023-11-21T08:16:40;24.60;;;16.20;;
41687;SDS011;27371;42.686;23.362;2023-11-21T08:19:06;26.80;;;15.10;;
41687;SDS011;27371;42.686;23.362;2023-11-21T08:21:33;25.00;;;16.15;;
41687;SDS011;27371;42.686;23.362;2023-11-21T08:23:59;26.33;;;18.45;;
41687;SDS011;27371;42.686;23.362;2023-11-21T08:26:25;32.67;;;20.20;;
41687;SDS011;27371;42.686;23.362;2023-11-21T08:28:51;33.92;;;19.30;;
41687;SDS011;27371;42.686;23.362;2023-11-21T08:31:23;28.70;;;18.35;;
41687;SDS011;27371;42.686;23.362;2023-11-21T08:33:49;31.98;;;20.20;;
41687;SDS011;27371;42.686;23.362;2023-11-21T08:36:15;37.22;;;20.83;;
41687;SDS011;27371;42.686;23.362;2023-11-21T08:38:40;33.55;;;19.38;;
41687;SDS011;27371;42.686;23.362;2023-11-21T08:41:06;41.78;;;19.35;;
41687;SDS011;27371;42.686;23.362;2023-11-21T08:43:34;35.70;;;18.85;;
41687;SDS011;27371;42.686;23.362;2023-11-21T08:46:00;36.85;;;19.27;;
41687;SDS011;27371;42.686;23.362;2023-11-21T08:48:25;36.15;;;19.33;;
41687;SDS011;27371;42.686;23.362;2023-11-21T08:50:53;34.85;;;20.73;;
41687;SDS011;27371;42.686;23.362;2023-11-21T08:53:19;43.40;;;20.70;;
41687;SDS011;27371;42.686;23.362;2023-11-21T08:55:44;39.40;;;21.38;;
41687;SDS011;27371;42.686;23.362;2023-11-21T08:58:10;48.70;;;24.25;;
41687;SDS011;27371;42.686;23.362;2023-11-21T09:00:37;43.15;;;24.65;;
41687;SDS011;27371;42.686;23.362;2023-11-21T09:03:04;50.83;;;25.25;;
41687;SDS011;27371;42.686;23.362;2023-11-21T09:05:33;53.67;;;26.77;;
41687;SDS011;27371;42.686;23.362;2023-11-21T09:07:59;44.13;;;25.55;;
41687;SDS011;27371;42.686;23.362;2023-11-21T09:10:25;50.47;;;25.98;;
41687;SDS011;27371;42.686;23.362;2023-11-21T09:12:50;42.17;;;25.75;;
41687;SDS011;27371;42.686;23.362;2023-11-21T09:15:17;54.17;;;25.98;;
41687;SDS011;27371;42.686;23.362;2023-11-21T09:17:42;49.40;;;28.85;;
41687;SDS011;27371;42.686;23.362;2023-11-21T09:20:09;48.05;;;26.90;;
41687;SDS011;27371;42.686;23.362;2023-11-21T09:22:35;42.63;;;24.98;;
41687;SDS011;27371;42.686;23.362;2023-11-21T09:25:01;43.22;;;27.55;;
41687;SDS011;27371;42.686;23.362;2023-11-21T09:27:30;41.78;;;25.83;;
41687;SDS011;27371;42.686;23.362;2023-11-21T09:29:58;42.17;;;25.92;;
41687;SDS011;27371;42.686;23.362;2023-11-21T09:32:23;45.58;;;26.55;;
41687;SDS011;27371;42.686;23.362;2023-11-21T09:34:49;40.22;;;24.08;;
41687;SDS011;27371;42.686;23.362;2023-11-21T09:37:15;34.10;;;22.35;;
41687;SDS011;27371;42.686;23.362;2023-11-21T09:39:41;37.38;;;22.80;;
41687;SDS011;27371;42.686;23.362;2023-11-21T09:42:11;41.03;;;22.83;;
41687;SDS011;27371;42.686;23.362;2023-11-21T09:47:14;31.58;;;17.85;;
41687;SDS011;27371;42.686;23.362;2023-11-21T09:49:41;28.80;;;15.75;;
41687;SDS011;27371;42.686;23.362;2023-11-21T09:52:11;22.60;;;14.85;;
41687;SDS011;27371;42.686;23.362;2023-11-21T09:54:47;30.33;;;16.25;;
41687;SDS011;27371;42.686;23.362;2023-11-21T09:57:24;28.85;;;13.80;;
41687;SDS011;27371;42.686;23.362;2023-11-21T09:59:53;24.25;;;14.15;;
41687;SDS011;27371;42.686;23.362;2023-11-21T10:02:24;23.25;;;13.45;;
41687;SDS011;27371;42.686;23.362;2023-11-21T10:04:53;24.13;;;12.93;;
41687;SDS011;27371;42.686;23.362;2023-11-21T10:07:20;19.52;;;12.18;;
41687;SDS011;27371;42.686;23.362;2023-11-21T10:09:46;23.30;;;13.20;;
41687;SDS011;27371;42.686;23.362;2023-11-21T10:12:14;19.10;;;12.02;;
41687;SDS011;27371;42.686;23.362;2023-11-21T10:14:41;17.95;;;12.20;;
41687;SDS011;27371;42.686;23.362;2023-11-21T10:17:08;19.45;;;11.98;;
41687;SDS011;27371;42.686;23.362;2023-11-21T10:19:41;18.70;;;12.05;;
41687;SDS011;27371;42.686;23.362;2023-11-21T10:22:08;16.70;;;10.90;;
41687;SDS011;27371;42.686;23.362;2023-11-21T10:24:34;20.80;;;10.98;;
41687;SDS011;27371;42.686;23.362;2023-11-21T10:27:02;17.90;;;11.77;;
41687;SDS011;27371;42.686;23.362;2023-11-21T10:29:31;19.30;;;10.60;;
41687;SDS011;27371;42.686;23.362;2023-11-21T10:32:01;18.52;;;10.93;;
41687;SDS011;27371;42.686;23.362;2023-11-21T10:34:27;19.05;;;9.35;;
41687;SDS011;27371;42.686;23.362;2023-11-21T10:36:53;17.55;;;9.18;;
41687;SDS011;27371;42.686;23.362;2023-11-21T10:39:19;20.98;;;9.52;;
41687;SDS011;27371;42.686;23.362;2023-11-21T10:41:49;14.32;;;9.93;;
41687;SDS011;27371;42.686;23.362;2023-11-21T10:44:16;16.17;;;9.05;;
41687;SDS011;27371;42.686;23.362;2023-11-21T10:46:52;16.15;;;8.77;;
41687;SDS011;27371;42.686;23.362;2023-11-21T10:49:21;13.93;;;8.68;;
41687;SDS011;27371;42.686;23.362;2023-11-21T10:51:50;19.00;;;8.90;;
41687;SDS011;27371;42.686;23.362;2023-11-21T10:54:21;12.98;;;8.45;;
41687;SDS011;27371;42.686;23.362;2023-11-21T10:56:49;16.30;;;9.00;;
41687;SDS011;27371;42.686;23.362;2023-11-21T10:59:18;15.38;;;10.68;;
41687;SDS011;27371;42.686;23.362;2023-11-21T11:01:46;18.23;;;11.57;;
41687;SDS011;27371;42.686;23.362;2023-11-21T11:04:14;21.80;;;12.68;;
41687;SDS011;27371;42.686;23.362;2023-11-21T11:06:52;23.60;;;12.48;;
41687;SDS011;27371;42.686;23.362;2023-11-21T11:09:22;23.77;;;12.73;;
41687;SDS011;27371;42.686;23.362;2023-11-21T11:11:48;19.73;;;12.55;;
41687;SDS011;27371;42.686;23.362;2023-11-21T11:14:14;20.27;;;10.88;;
41687;SDS011;27371;42.686;23.362;2023-11-21T11:16:40;18.42;;;10.43;;
41687;SDS011;27371;42.686;23.362;2023-11-21T11:19:09;18.90;;;11.35;;
41687;SDS011;27371;42.686;23.362;2023-11-21T11:29:59;19.80;;;11.75;;
41687;SDS011;27371;42.686;23.362;2023-11-21T11:33:30;16.40;;;11.77;;
41687;SDS011;27371;42.686;23.362;2023-11-21T11:38:32;19.88;;;12.30;;
41687;SDS011;27371;42.686;23.362;2023-11-21T11:41:04;19.65;;;12.07;;
41687;SDS011;27371;42.686;23.362;2023-11-21T11:43:31;21.45;;;12.50;;
41687;SDS011;27371;42.686;23.362;2023-11-21T11:46:09;23.10;;;13.70;;
41687;SDS011;27371;42.686;23.362;2023-11-21T11:48:38;21.58;;;13.88;;
41687;SDS011;27371;42.686;23.362;2023-11-21T11:53:40;20.57;;;13.47;;
41687;SDS011;27371;42.686;23.362;2023-11-21T11:56:26;22.92;;;12.30;;
41687;SDS011;27371;42.686;23.362;2023-11-21T11:59:02;22.38;;;12.57;;
41687;SDS011;27371;42.686;23.362;2023-11-21T12:01:30;19.20;;;13.20;;
41687;SDS011;27371;42.686;23.362;2023-11-21T12:07:00;24.60;;;14.30;;
41687;SDS011;27371;42.686;23.362;2023-11-21T12:09:28;26.77;;;15.18;;
41687;SDS011;27371;42.686;23.362;2023-11-21T12:11:55;32.35;;;17.13;;
41687;SDS011;27371;42.686;23.362;2023-11-21T12:14:21;26.23;;;16.40;;
41687;SDS011;27371;42.686;23.362;2023-11-21T12:16:48;28.92;;;17.15;;
41687;SDS011;27371;42.686;23.362;2023-11-21T12:19:14;26.70;;;17.92;;
41687;SDS011;27371;42.686;23.362;2023-11-21T12:21:40;39.25;;;22.88;;
41687;SDS011;27371;42.686;23.362;2023-11-21T12:24:13;31.33;;;19.90;;
41687;SDS011;27371;42.686;23.362;2023-11-21T12:26:40;33.88;;;19.77;;
41687;SDS011;27371;42.686;23.362;2023-11-21T12:29:05;38.25;;;19.38;;
41687;SDS011;27371;42.686;23.362;2023-11-21T12:31:32;34.78;;;19.95;;
41687;SDS011;27371;42.686;23.362;2023-11-21T12:33:59;31.88;;;18.73;;
41687;SDS011;27371;42.686;23.362;2023-11-21T12:36:25;35.30;;;20.95;;
41687;SDS011;27371;42.686;23.362;2023-11-21T12:38:51;37.22;;;19.42;;
41687;SDS011;27371;42.686;23.362;2023-11-21T12:41:17;34.08;;;18.00;;
41687;SDS011;27371;42.686;23.362;2023-11-21T12:43:42;26.67;;;17.08;;
41687;SDS011;27371;42.686;23.362;2023-11-21T12:46:10;28.35;;;16.08;;
41687;SDS011;27371;42.686;23.362;2023-11-21T12:48:39;33.33;;;17.15;;
41687;SDS011;27371;42.686;23.362;2023-11-21T12:51:10;23.80;;;16.05;;
41687;SDS011;27371;42.686;23.362;2023-11-21T12:53:39;30.10;;;17.13;;
41687;SDS011;27371;42.686;23.362;2023-11-21T12:56:14;28.17;;;16.85;;
41687;SDS011;27371;42.686;23.362;2023-11-21T12:58:44;33.00;;;16.30;;
41687;SDS011;27371;42.686;23.362;2023-11-21T13:01:15;30.00;;;17.63;;
41687;SDS011;27371;42.686;23.362;2023-11-21T13:03:46;32.10;;;17.67;;
41687;SDS011;27371;42.686;23.362;2023-11-21T13:06:14;33.15;;;17.15;;
41687;SDS011;27371;42.686;23.362;2023-11-21T13:08:44;35.75;;;17.67;;
41687;SDS011;27371;42.686;23.362;2023-11-21T13:11:10;33.75;;;17.35;;
41687;SDS011;27371;42.686;23.362;2023-11-21T13:13:36;35.22;;;17.08;;
41687;SDS011;27371;42.686;23.362;2023-11-21T13:16:03;33.38;;;17.92;;
41687;SDS011;27371;42.686;23.362;2023-11-21T13:18:29;31.10;;;18.58;;
41687;SDS011;27371;42.686;23.362;2023-11-21T13:20:59;31.30;;;18.23;;
41687;SDS011;27371;42.686;23.362;2023-11-21T13:23:28;34.67;;;18.02;;
41687;SDS011;27371;42.686;23.362;2023-11-21T13:25:54;32.35;;;17.83;;
41687;SDS011;27371;42.686;23.362;2023-11-21T13:28:20;31.35;;;18.85;;
41687;SDS011;27371;42.686;23.362;2023-11-21T13:30:47;32.55;;;19.50;;
41687;SDS011;27371;42.686;23.362;2023-11-21T13:33:13;33.17;;;18.30;;
41687;SDS011;27371;42.686;23.362;2023-11-21T13:35:44;33.80;;;18.27;;
41687;SDS011;27371;42.686;23.362;2023-11-21T13:38:17;37.45;;;18.17;;
41687;SDS011;27371;42.686;23.362;2023-11-21T13:40:47;36.38;;;19.75;;
41687;SDS011;27371;42.686;23.362;2023-11-21T13:43:19;27.70;;;19.58;;
41687;SDS011;27371;42.686;23.362;2023-11-21T13:45:47;36.83;;;19.10;;
41687;SDS011;27371;42.686;23.362;2023-11-21T13:48:16;31.35;;;20.05;;
41687;SDS011;27371;42.686;23.362;2023-11-21T13:50:50;42.10;;;19.92;;
41687;SDS011;27371;42.686;23.362;2023-11-21T13:53:27;37.55;;;19.70;;
41687;SDS011;27371;42.686;23.362;2023-11-21T13:55:53;31.48;;;19.63;;
41687;SDS011;27371;42.686;23.362;2023-11-21T13:58:26;39.28;;;19.85;;
41687;SDS011;27371;42.686;23.362;2023-11-21T14:01:06;36.80;;;20.30;;
41687;SDS011;27371;42.686;23.362;2023-11-21T14:06:16;35.20;;;21.75;;
41687;SDS011;27371;42.686;23.362;2023-11-21T14:08:49;33.17;;;20.77;;
41687;SDS011;27371;42.686;23.362;2023-11-21T14:11:15;33.63;;;22.17;;
41687;SDS011;27371;42.686;23.362;2023-11-21T14:13:43;35.58;;;20.20;;
41687;SDS011;27371;42.686;23.362;2023-11-21T14:16:13;38.22;;;21.27;;
41687;SDS011;27371;42.686;23.362;2023-11-21T14:18:39;32.40;;;19.48;;
41687;SDS011;27371;42.686;23.362;2023-11-21T14:21:17;36.65;;;21.48;;
41687;SDS011;27371;42.686;23.362;2023-11-21T14:23:43;42.65;;;21.67;;
41687;SDS011;27371;42.686;23.362;2023-11-21T14:26:10;31.75;;;19.17;;
41687;SDS011;27371;42.686;23.362;2023-11-21T14:28:40;35.38;;;20.88;;
41687;SDS011;27371;42.686;23.362;2023-11-21T14:31:06;40.63;;;23.10;;